createdAt,value
2023-04-18T00:01:15.293Z,89.61
2023-04-18T00:06:19.498Z,90.58
2023-04-18T00:11:25.373Z,89.35
2023-04-18T00:16:29.414Z,90.31
2023-04-18T00:21:33.623Z,88.69
2023-04-18T00:26:39.060Z,90.12
2023-04-18T00:31:43.082Z,89.20
2023-04-18T00:36:47.576Z,91.02
2023-04-18T00:41:53.510Z,91.29
2023-04-18T00:46:57.624Z,90.81
2023-04-18T00:52:03.881Z,91.13
2023-04-18T00:57:09.870Z,91.37
2023-04-18T01:02:15.124Z,91.19
2023-04-18T01:07:19.518Z,91.67
2023-04-18T01:12:25.314Z,90.42
2023-04-18T01:17:31.699Z,88.69
2023-04-18T01:22:36.218Z,91.00
2023-04-18T01:27:41.692Z,91.67
2023-04-18T01:32:46.586Z,90.99
2023-04-18T01:37:50.940Z,91.42
2023-04-18T01:42:56.693Z,91.91
2023-04-18T01:48:01.114Z,90.01
2023-04-18T01:53:05.452Z,89.00
2023-04-18T01:58:13.981Z,90.76
2023-04-18T02:03:18.364Z,91.97
2023-04-18T02:08:22.976Z,89.50
2023-04-18T02:13:28.553Z,92.29
2023-04-18T02:18:34.783Z,89.83
2023-04-18T02:23:38.933Z,92.18
2023-04-18T02:28:44.599Z,92.43
2023-04-18T02:33:48.934Z,91.34
2023-04-18T02:38:53.060Z,90.08
2023-04-18T02:43:59.678Z,89.88
2023-04-18T02:49:03.906Z,90.82
2023-04-18T02:54:09.239Z,90.86
2023-04-18T02:59:29.001Z,90.60
2023-04-18T03:04:54.346Z,90.15
2023-04-18T03:09:58.792Z,90.67
2023-04-18T03:15:12.615Z,91.20
2023-04-18T03:20:16.860Z,93.08
2023-04-18T03:25:21.070Z,92.20
2023-04-18T03:30:30.867Z,91.01
2023-04-18T03:35:36.853Z,89.63
2023-04-18T03:40:42.256Z,91.43
2023-04-18T03:45:56.659Z,92.61
2023-04-18T03:51:01.668Z,92.04
2023-04-18T03:56:11.012Z,92.11
2023-04-18T04:01:30.237Z,90.70
2023-04-18T04:06:35.771Z,93.05
2023-04-18T04:11:39.931Z,92.55
2023-04-18T04:16:49.113Z,91.48
2023-04-18T04:21:55.433Z,90.89
2023-04-18T04:27:00.294Z,90.57
2023-04-18T04:32:07.350Z,89.36
2023-04-18T04:37:15.259Z,91.86
2023-04-18T04:42:32.229Z,93.08
2023-04-18T04:47:47.870Z,90.49
2023-04-18T04:52:52.653Z,90.30
2023-04-18T04:57:57.596Z,89.39
2023-04-18T05:03:29.685Z,86.70
2023-04-18T05:08:37.327Z,87.58
2023-04-18T05:13:41.477Z,86.56
2023-04-18T05:18:47.281Z,85.62
2023-04-18T05:23:51.473Z,84.81
2023-04-18T05:28:55.973Z,84.90
2023-04-18T05:34:03.232Z,82.23
2023-04-18T05:39:07.343Z,81.48
2023-04-18T05:44:11.558Z,82.63
2023-04-18T05:49:17.802Z,83.18
2023-04-18T05:54:22.753Z,82.08
2023-04-18T05:59:28.031Z,81.57
2023-04-18T06:04:33.845Z,78.31
2023-04-18T06:09:38.599Z,78.71
2023-04-18T06:14:43.574Z,79.25
2023-04-18T06:19:49.285Z,79.04
2023-04-18T06:24:56.619Z,76.37
2023-04-18T06:30:00.950Z,75.31
2023-04-18T06:35:10.627Z,75.72
2023-04-18T06:40:15.172Z,73.58
2023-04-18T06:45:21.882Z,73.34
2023-04-18T06:50:27.338Z,72.39
2023-04-18T06:55:31.486Z,70.65
2023-04-18T07:00:35.742Z,70.61
2023-04-18T07:05:41.224Z,69.56
2023-04-18T07:10:45.562Z,69.59
2023-04-18T07:15:49.626Z,67.27
2023-04-18T07:20:55.096Z,64.77
2023-04-18T07:26:02.159Z,64.50
2023-04-18T07:31:11.658Z,63.95
2023-04-18T07:36:17.212Z,62.14
2023-04-18T07:41:21.311Z,60.76
2023-04-18T07:46:25.497Z,58.98
2023-04-18T07:51:32.771Z,58.65
2023-04-18T07:56:36.953Z,59.34
2023-04-18T08:01:43.357Z,62.50
2023-04-18T08:06:48.828Z,65.20
2023-04-18T08:11:55.129Z,63.33
2023-04-18T08:16:59.204Z,64.37
2023-04-18T08:22:11.352Z,63.46
2023-04-18T08:27:15.376Z,63.62
2023-04-18T08:32:19.615Z,65.66
2023-04-18T08:37:25.253Z,66.48
2023-04-18T08:42:30.281Z,65.55
2023-04-18T08:47:36.329Z,63.30
2023-04-18T08:52:47.709Z,63.11
2023-04-18T08:57:54.256Z,62.91
2023-04-18T09:02:59.124Z,62.30
2023-04-18T09:08:23.790Z,59.33
2023-04-18T09:13:41.448Z,57.71
2023-04-18T09:19:12.385Z,58.01
2023-04-18T09:24:21.127Z,57.75
2023-04-18T09:29:47.646Z,57.04
2023-04-18T09:34:54.486Z,59.00
2023-04-18T09:40:01.547Z,58.00
2023-04-18T09:45:07.834Z,57.11
2023-04-18T09:50:12.836Z,57.75
2023-04-18T09:55:20.182Z,57.81
2023-04-18T10:00:30.713Z,56.91
2023-04-18T10:05:36.734Z,58.47
2023-04-18T10:10:42.222Z,57.70
2023-04-18T10:15:47.422Z,57.97
2023-04-18T10:20:52.029Z,57.99
2023-04-18T10:25:58.093Z,56.48
2023-04-18T10:31:07.559Z,56.31
2023-04-18T10:36:17.143Z,54.49
2023-04-18T10:41:25.144Z,56.33
2023-04-18T10:46:32.616Z,57.97
2023-04-18T10:51:37.024Z,69.06
2023-04-18T10:56:53.856Z,71.42
2023-04-18T11:02:01.139Z,71.43
2023-04-18T11:07:06.575Z,76.28
2023-04-18T11:12:13.113Z,80.26
2023-04-18T11:17:22.102Z,79.58
2023-04-18T11:22:26.340Z,78.29
2023-04-18T11:27:31.867Z,77.07
2023-04-18T11:32:37.411Z,76.78
2023-04-18T11:37:42.648Z,75.35
2023-04-18T11:42:48.106Z,74.15
2023-04-18T11:47:58.208Z,74.04
2023-04-18T11:53:02.581Z,72.57
2023-04-18T11:58:08.085Z,71.61
2023-04-18T12:03:17.677Z,76.86
2023-04-18T12:08:22.395Z,73.61
2023-04-18T12:13:34.035Z,73.10
2023-04-18T12:18:39.372Z,74.47
2023-04-18T12:23:46.526Z,73.28
2023-04-18T12:28:53.883Z,76.06
2023-04-18T12:34:00.170Z,77.18
2023-04-18T12:39:05.925Z,79.23
2023-04-18T12:44:11.767Z,79.54
2023-04-18T12:49:16.026Z,79.36
2023-04-18T12:54:20.260Z,81.01
2023-04-18T12:59:25.688Z,83.11
2023-04-18T13:04:29.866Z,82.81
2023-04-18T13:09:35.207Z,82.05
2023-04-18T13:14:41.084Z,80.38
2023-04-18T13:19:45.765Z,76.83
2023-04-18T13:24:49.954Z,74.59
2023-04-18T13:29:57.341Z,75.88
2023-04-18T13:35:03.127Z,70.57
2023-04-18T13:40:09.562Z,70.65
2023-04-18T13:45:15.308Z,68.87
2023-04-18T13:50:20.943Z,69.18
2023-04-18T13:55:25.874Z,69.33
2023-04-18T14:00:31.471Z,69.63
2023-04-18T14:05:36.857Z,68.24
2023-04-18T14:10:41.111Z,71.19
2023-04-18T14:15:46.886Z,71.25
2023-04-18T14:20:50.948Z,68.06
2023-04-18T14:25:55.365Z,67.94
2023-04-18T14:31:03.132Z,66.86
2023-04-18T14:36:08.644Z,67.60
2023-04-18T14:41:12.832Z,68.18
2023-04-18T14:46:18.449Z,68.25
2023-04-18T14:51:22.471Z,67.52
2023-04-18T14:56:26.771Z,68.01
2023-04-18T15:01:32.957Z,66.19
2023-04-18T15:06:37.704Z,65.76
2023-04-18T15:11:44.237Z,64.95
2023-04-18T15:16:51.683Z,65.38
2023-04-18T15:21:55.800Z,65.91
2023-04-18T15:27:00.283Z,65.31
2023-04-18T15:32:06.641Z,63.55
2023-04-18T15:37:11.376Z,63.01
2023-04-18T15:42:17.551Z,63.48
2023-04-18T15:47:24.059Z,62.82
2023-04-18T15:52:28.464Z,63.47
2023-04-18T15:57:34.013Z,63.92
2023-04-18T16:02:39.922Z,64.40
2023-04-18T16:07:46.590Z,64.39
2023-04-18T16:12:53.654Z,64.82
2023-04-18T16:18:00.430Z,62.23
2023-04-18T16:23:04.898Z,63.48
2023-04-18T16:28:09.086Z,64.44
2023-04-18T16:33:14.752Z,67.15
2023-04-18T16:38:19.124Z,69.88
2023-04-18T16:43:23.867Z,68.49
2023-04-18T16:48:31.112Z,68.30
2023-04-18T16:53:35.358Z,71.75
2023-04-18T16:58:39.428Z,71.72
2023-04-18T17:03:45.894Z,64.76
2023-04-18T17:08:51.118Z,64.23
2023-04-18T17:19:24.875Z,64.33
2023-04-18T17:24:29.165Z,64.31
2023-04-18T17:29:33.477Z,70.27
2023-04-18T17:34:41.663Z,74.82
2023-04-18T17:39:45.971Z,74.37
2023-04-18T17:44:50.969Z,74.21
2023-04-18T17:49:56.809Z,77.44
2023-04-18T17:55:01.838Z,77.28
2023-04-18T18:00:12.170Z,75.69
2023-04-18T18:05:21.195Z,79.20
2023-04-18T18:10:25.262Z,80.31
2023-04-18T18:15:30.135Z,77.61
2023-04-18T18:20:35.990Z,74.93
2023-04-18T18:25:40.421Z,75.06
2023-04-18T18:30:44.796Z,77.98
2023-04-18T18:35:50.721Z,81.11
2023-04-18T18:40:57.738Z,82.17
2023-04-18T18:46:02.287Z,82.89
2023-04-18T18:51:12.281Z,85.38
2023-04-18T18:56:19.407Z,85.94
2023-04-18T19:01:26.211Z,87.54
2023-04-18T19:06:32.244Z,88.79
2023-04-18T19:11:36.505Z,88.95
2023-04-18T19:16:40.844Z,88.90
2023-04-18T19:21:47.470Z,89.08
2023-04-18T19:26:53.024Z,88.65
2023-04-18T19:31:57.226Z,87.30
2023-04-18T19:37:03.140Z,88.62
2023-04-18T19:42:08.430Z,88.44
2023-04-18T19:47:13.133Z,87.81
2023-04-18T19:52:19.796Z,87.49
2023-04-18T19:57:25.612Z,86.03
2023-04-18T20:02:29.954Z,85.24
2023-04-18T20:07:36.084Z,83.16
2023-04-18T20:12:41.351Z,82.99
2023-04-18T20:17:45.648Z,81.81
2023-04-18T20:22:52.743Z,82.15
2023-04-18T20:27:57.474Z,82.34
2023-04-18T20:33:02.103Z,82.59
2023-04-18T20:38:11.488Z,82.93
2023-04-18T20:43:17.554Z,82.55
2023-04-18T20:48:22.025Z,82.02
2023-04-18T20:53:29.060Z,82.95
2023-04-18T20:58:32.981Z,84.09
2023-04-18T21:03:37.080Z,85.04
2023-04-18T21:08:45.384Z,84.69
2023-04-18T21:13:49.432Z,84.31
2023-04-18T21:18:54.820Z,83.72
2023-04-18T21:24:00.777Z,83.80
2023-04-18T21:29:05.897Z,84.47
2023-04-18T21:34:11.586Z,86.34
2023-04-18T21:39:17.554Z,85.69
2023-04-18T21:44:21.563Z,84.56
2023-04-18T21:49:25.977Z,84.27
2023-04-18T21:54:31.513Z,85.00
2023-04-18T21:59:35.799Z,85.75
2023-04-18T22:04:42.626Z,85.06
2023-04-18T22:09:48.776Z,86.70
2023-04-18T22:14:52.922Z,87.33
2023-04-18T22:19:58.244Z,85.64
2023-04-18T22:25:03.712Z,86.07
2023-04-18T22:30:08.868Z,86.26
2023-04-18T22:35:12.929Z,88.23
2023-04-18T22:40:18.959Z,88.06
2023-04-18T22:45:25.552Z,86.81
2023-04-18T22:50:30.331Z,86.60
2023-04-18T22:55:35.979Z,85.28
2023-04-18T23:00:40.066Z,85.34
2023-04-18T23:05:44.398Z,84.76
2023-04-18T23:10:49.996Z,86.32
2023-04-18T23:15:54.367Z,86.00
2023-04-18T23:20:58.576Z,85.63
2023-04-18T23:26:04.248Z,84.89
2023-04-18T23:31:10.158Z,86.41
2023-04-18T23:36:14.680Z,85.75
2023-04-18T23:41:20.386Z,85.65
2023-04-18T23:46:24.574Z,86.69
2023-04-18T23:51:31.160Z,86.61
2023-04-18T23:56:36.983Z,85.39
